createdAt,value
2017-11-22T00:00:23.489Z,94114.84
2017-11-22T00:02:51.178Z,94128.65
2017-11-22T00:05:18.951Z,94118.97
2017-11-22T00:07:46.745Z,94135.66
2017-11-22T00:10:14.425Z,94132.52
2017-11-22T00:12:42.152Z,94126.02
2017-11-22T00:15:09.835Z,94118.55
2017-11-22T00:17:37.575Z,94124.39
2017-11-22T00:20:05.675Z,94129.34
2017-11-22T00:22:33.385Z,94122.53
2017-11-22T00:25:01.111Z,94125.10
2017-11-22T00:27:28.844Z,94123.45
2017-11-22T00:29:56.579Z,94130.48
2017-11-22T00:32:24.300Z,94136.88
2017-11-22T00:34:51.990Z,94130.83
2017-11-22T00:37:19.738Z,94135.14
2017-11-22T00:39:47.550Z,94136.00
2017-11-22T00:42:15.271Z,94137.91
2017-11-22T00:44:43.016Z,94143.47
2017-11-22T00:47:10.737Z,94144.67
2017-11-22T00:49:38.423Z,94141.52
2017-11-22T00:52:06.136Z,94148.77
2017-11-22T00:54:33.875Z,94144.35
2017-11-22T00:57:01.638Z,94146.83
2017-11-22T00:59:29.341Z,94142.75
2017-11-22T01:01:57.087Z,94157.91
2017-11-22T01:04:24.752Z,94146.54
2017-11-22T01:06:52.497Z,94142.61
2017-11-22T01:09:20.212Z,94140.30
2017-11-22T01:11:47.965Z,94137.88
2017-11-22T01:14:15.780Z,94142.68
2017-11-22T01:16:43.459Z,94137.82
2017-11-22T01:19:11.218Z,94132.66
2017-11-22T01:21:38.906Z,94141.69
2017-11-22T01:24:06.597Z,94135.45
2017-11-22T01:26:34.348Z,94143.52
2017-11-22T01:29:02.088Z,94136.77
2017-11-22T01:31:29.826Z,94137.29
2017-11-22T01:33:57.515Z,94144.40
2017-11-22T01:36:25.236Z,94144.08
2017-11-22T01:38:53.040Z,94142.25
2017-11-22T01:41:20.773Z,94138.28
2017-11-22T01:43:48.652Z,94139.81
2017-11-22T01:46:16.391Z,94140.61
2017-11-22T01:48:44.187Z,94134.88
2017-11-22T01:51:11.885Z,94136.84
2017-11-22T01:53:39.595Z,94133.67
2017-11-22T01:56:07.333Z,94129.52
2017-11-22T01:58:35.009Z,94122.45
2017-11-22T02:01:02.746Z,94124.20
2017-11-22T02:03:30.449Z,94118.99
2017-11-22T02:05:58.230Z,94126.02
2017-11-22T02:08:25.964Z,94128.03
2017-11-22T02:10:53.729Z,94125.61
2017-11-22T02:13:21.406Z,94130.19
2017-11-22T02:15:49.285Z,94129.30
2017-11-22T02:18:16.950Z,94124.42
2017-11-22T02:20:44.666Z,94122.64
2017-11-22T02:23:12.348Z,94118.98
2017-11-22T02:25:40.099Z,94121.71
2017-11-22T02:28:07.825Z,94122.20
2017-11-22T02:30:35.525Z,94119.97
2017-11-22T02:33:03.313Z,94127.16
2017-11-22T02:35:32.188Z,94124.39
2017-11-22T02:37:59.938Z,94126.42
2017-11-22T02:40:27.667Z,94126.97
2017-11-22T02:42:55.454Z,94122.64
2017-11-22T02:45:23.432Z,94127.46
2017-11-22T02:47:51.144Z,94132.97
2017-11-22T02:50:18.879Z,94131.58
2017-11-22T02:52:46.682Z,94124.59
2017-11-22T02:55:14.418Z,94118.90
2017-11-22T02:57:42.176Z,94118.05
2017-11-22T03:00:09.920Z,94113.07
2017-11-22T03:02:37.608Z,94118.45
2017-11-22T03:05:05.361Z,94108.58
2017-11-22T03:07:33.066Z,94113.63
2017-11-22T03:10:00.780Z,94112.19
2017-11-22T03:12:28.451Z,94111.95
2017-11-22T03:14:56.208Z,94116.13
2017-11-22T03:17:24.033Z,94110.50
2017-11-22T03:22:25.541Z,94123.64
2017-11-22T03:24:53.283Z,94109.06
2017-11-22T03:27:21.050Z,94111.16
2017-11-22T03:29:48.754Z,94115.80
2017-11-22T03:32:16.631Z,94111.40
2017-11-22T03:34:44.354Z,94114.04
2017-11-22T03:37:12.117Z,94115.55
2017-11-22T03:39:39.873Z,94104.69
2017-11-22T03:42:07.562Z,94104.91
2017-11-22T03:44:35.384Z,94112.81
2017-11-22T03:47:03.127Z,94110.28
2017-11-22T03:49:31.648Z,94108.52
2017-11-22T03:52:04.809Z,94110.02
2017-11-22T03:54:32.523Z,94116.25
2017-11-22T03:57:00.233Z,94114.27
2017-11-22T03:59:28.003Z,94111.38
2017-11-22T04:01:58.574Z,94113.42
2017-11-22T04:04:28.137Z,94118.70
2017-11-22T04:06:56.004Z,94112.78
2017-11-22T04:09:23.733Z,94115.19
2017-11-22T04:11:51.409Z,94115.98
2017-11-22T04:14:19.128Z,94119.38
2017-11-22T04:16:46.926Z,94115.50
2017-11-22T04:19:20.228Z,94123.78
2017-11-22T04:21:47.965Z,94111.62
2017-11-22T04:24:15.647Z,94115.05
2017-11-22T04:26:43.379Z,94123.57
2017-11-22T04:29:11.118Z,94117.22
2017-11-22T04:31:38.799Z,94111.13
2017-11-22T04:34:06.844Z,94116.44
2017-11-22T04:36:34.688Z,94116.02
2017-11-22T04:39:02.503Z,94131.53
2017-11-22T04:41:30.215Z,94124.73
2017-11-22T04:43:58.298Z,94122.56
2017-11-22T04:46:26.104Z,94127.70
2017-11-22T04:48:53.850Z,94126.81
2017-11-22T04:51:21.543Z,94130.34
2017-11-22T04:53:49.349Z,94119.70
2017-11-22T04:56:17.108Z,94126.90
2017-11-22T04:58:44.857Z,94116.26
2017-11-22T05:01:12.655Z,94117.05
2017-11-22T05:03:40.384Z,94114.60
2017-11-22T05:06:08.108Z,94118.97
2017-11-22T05:08:35.966Z,94114.33
2017-11-22T05:11:03.755Z,94116.73
2017-11-22T05:13:31.442Z,94121.30
2017-11-22T05:15:59.173Z,94116.33
2017-11-22T05:18:26.948Z,94118.56
2017-11-22T05:20:54.652Z,94117.05
2017-11-22T05:23:22.352Z,94127.45
2017-11-22T05:25:50.089Z,94124.16
2017-11-22T05:28:17.891Z,94124.44
2017-11-22T05:30:45.617Z,94121.16
2017-11-22T05:33:13.402Z,94124.36
2017-11-22T05:35:41.081Z,94120.62
2017-11-22T05:38:08.839Z,94127.98
2017-11-22T05:40:36.548Z,94124.26
2017-11-22T05:43:04.354Z,94137.64
2017-11-22T05:45:32.027Z,94132.20
2017-11-22T05:47:59.716Z,94132.55
2017-11-22T05:50:28.875Z,94126.70
2017-11-22T05:52:56.626Z,94127.41
2017-11-22T05:55:24.324Z,94140.30
2017-11-22T05:57:52.028Z,94130.69
2017-11-22T06:00:19.791Z,94138.63
2017-11-22T06:02:47.497Z,94141.30
2017-11-22T06:05:15.185Z,94146.52
2017-11-22T06:07:43.376Z,94146.52
2017-11-22T06:10:11.167Z,94149.16
2017-11-22T06:12:38.912Z,94151.41
2017-11-22T06:15:06.603Z,94140.67
2017-11-22T06:17:34.324Z,94143.08
2017-11-22T06:20:02.116Z,94156.96
2017-11-22T06:22:29.818Z,94143.56
2017-11-22T06:24:57.571Z,94152.29
2017-11-22T06:27:25.280Z,94164.53
2017-11-22T06:29:57.827Z,94156.11
2017-11-22T06:32:25.722Z,94160.03
2017-11-22T06:34:53.475Z,94157.03
2017-11-22T06:37:21.168Z,94159.58
2017-11-22T06:39:48.886Z,94160.13
2017-11-22T06:42:16.631Z,94156.56
2017-11-22T06:44:44.382Z,94162.92
2017-11-22T06:47:12.106Z,94170.93
2017-11-22T06:49:39.896Z,94168.53
2017-11-22T06:52:07.661Z,94166.86
2017-11-22T06:54:35.359Z,94169.61
2017-11-22T06:57:03.128Z,94171.61
2017-11-22T06:59:30.846Z,94165.51
2017-11-22T07:01:59.474Z,94174.41
2017-11-22T07:04:27.233Z,94177.05
2017-11-22T07:06:54.933Z,94169.13
2017-11-22T07:09:22.781Z,94185.11
2017-11-22T07:11:51.396Z,94187.14
2017-11-22T07:14:19.144Z,94185.91
2017-11-22T07:16:52.381Z,94183.28
2017-11-22T07:19:20.090Z,94179.81
2017-11-22T07:21:49.007Z,94180.32
2017-11-22T07:24:16.720Z,94189.03
2017-11-22T07:26:44.562Z,94182.61
2017-11-22T07:29:12.448Z,94191.34
2017-11-22T07:31:40.180Z,94186.32
2017-11-22T07:34:07.890Z,94191.53
2017-11-22T07:36:41.251Z,94193.61
2017-11-22T07:39:08.949Z,94192.47
2017-11-22T07:41:36.745Z,94197.17
2017-11-22T07:44:04.447Z,94193.43
2017-11-22T07:46:32.259Z,94195.81
2017-11-22T07:49:00.054Z,94192.86
2017-11-22T07:51:34.121Z,94197.72
2017-11-22T07:54:01.924Z,94196.15
2017-11-22T07:56:29.615Z,94196.75
2017-11-22T07:58:57.356Z,94196.95
2017-11-22T08:01:26.351Z,94200.73
2017-11-22T08:03:59.737Z,94208.78
2017-11-22T08:06:27.435Z,94202.91
2017-11-22T08:08:55.138Z,94203.45
2017-11-22T08:11:22.901Z,94207.80
2017-11-22T08:13:50.651Z,94208.06
2017-11-22T08:16:18.324Z,94211.13
2017-11-22T08:18:46.364Z,94202.12
2017-11-22T08:21:14.114Z,94198.55
2017-11-22T08:23:41.846Z,94207.20
2017-11-22T08:26:09.587Z,94205.48
2017-11-22T08:28:37.359Z,94203.97
2017-11-22T08:31:05.116Z,94214.41
2017-11-22T08:33:32.869Z,94212.53
2017-11-22T08:36:00.575Z,94214.19
2017-11-22T08:38:28.247Z,94210.19
2017-11-22T08:40:56.104Z,94204.80
2017-11-22T08:43:29.487Z,94215.98
2017-11-22T08:45:57.208Z,94214.58
2017-11-22T08:48:25.331Z,94208.01
2017-11-22T08:50:53.051Z,94209.13
2017-11-22T08:53:20.749Z,94218.05
2017-11-22T08:55:54.102Z,94215.58
2017-11-22T08:58:22.001Z,94215.36
2017-11-22T09:00:49.747Z,94219.83
2017-11-22T09:03:17.501Z,94216.42
2017-11-22T09:05:49.082Z,94206.19
2017-11-22T09:08:16.804Z,94212.97
2017-11-22T09:10:44.497Z,94206.41
2017-11-22T09:13:20.527Z,94199.09
2017-11-22T09:15:48.275Z,94205.81
2017-11-22T09:18:21.598Z,94206.21
2017-11-22T09:20:49.396Z,94213.63
2017-11-22T09:23:17.139Z,94210.55
2017-11-22T09:25:44.874Z,94211.89
2017-11-22T09:28:12.624Z,94199.83
2017-11-22T09:30:46.113Z,94200.87
2017-11-22T09:33:13.792Z,94198.52
2017-11-22T09:35:41.567Z,94194.88
2017-11-22T09:38:09.317Z,94201.48
2017-11-22T09:40:37.005Z,94196.39
2017-11-22T09:43:04.795Z,94194.34
2017-11-22T09:45:32.579Z,94189.73
2017-11-22T09:48:00.285Z,94189.22
2017-11-22T09:50:28.267Z,94183.77
2017-11-22T09:52:55.950Z,94189.55
2017-11-22T09:55:23.658Z,94191.39
2017-11-22T09:57:51.409Z,94182.66
2017-11-22T10:00:19.158Z,94178.42
2017-11-22T10:02:46.860Z,94176.17
2017-11-22T10:05:14.595Z,94169.41
2017-11-22T10:07:42.340Z,94171.95
2017-11-22T10:10:10.097Z,94172.98
2017-11-22T10:12:37.760Z,94172.47
2017-11-22T10:15:05.453Z,94169.73
2017-11-22T10:17:34.168Z,94169.80
2017-11-22T10:20:04.833Z,94171.47
2017-11-22T10:22:50.281Z,94167.32
2017-11-22T10:25:20.008Z,94161.95
2017-11-22T10:27:47.947Z,94153.38
2017-11-22T10:30:15.737Z,94162.32
2017-11-22T10:32:49.110Z,94158.79
2017-11-22T10:35:16.943Z,94160.73
2017-11-22T10:37:44.698Z,94156.50
2017-11-22T10:40:12.449Z,94151.24
2017-11-22T10:42:40.198Z,94152.33
2017-11-22T10:45:07.917Z,94148.30
2017-11-22T10:47:35.666Z,94155.47
2017-11-22T10:50:03.649Z,94138.22
2017-11-22T10:52:31.529Z,94141.22
2017-11-22T10:54:59.323Z,94127.88
2017-11-22T10:57:27.070Z,94130.66
2017-11-22T10:59:54.838Z,94126.45
2017-11-22T11:02:22.556Z,94128.04
2017-11-22T11:04:51.264Z,94121.06
2017-11-22T11:07:18.989Z,94117.28
2017-11-22T11:09:46.768Z,94123.95
2017-11-22T11:12:14.662Z,94121.58
2017-11-22T11:14:42.383Z,94117.36
2017-11-22T11:17:11.212Z,94117.24
2017-11-22T11:19:39.274Z,94113.92
2017-11-22T11:22:07.032Z,94112.91
2017-11-22T11:24:34.872Z,94115.73
2017-11-22T11:27:02.596Z,94113.28
2017-11-22T11:29:30.363Z,94102.86
2017-11-22T11:31:58.077Z,94112.23
2017-11-22T11:34:26.129Z,94110.09
2017-11-22T11:36:54.203Z,94108.38
2017-11-22T11:39:22.087Z,94119.45
2017-11-22T11:41:49.954Z,94110.25
2017-11-22T11:44:17.851Z,94112.62
2017-11-22T11:46:45.738Z,94105.55
2017-11-22T11:49:13.525Z,94114.58
2017-11-22T11:51:42.331Z,94116.17
2017-11-22T11:54:10.120Z,94107.81
2017-11-22T11:56:37.905Z,94109.29
2017-11-22T11:59:05.594Z,94106.89
2017-11-22T12:01:33.346Z,94106.12
2017-11-22T12:04:01.129Z,94119.25
2017-11-22T12:06:28.861Z,94113.34
2017-11-22T12:08:56.567Z,94109.48
2017-11-22T12:11:24.415Z,94108.87
2017-11-22T12:13:52.114Z,94101.48
2017-11-22T12:16:19.880Z,94108.00
2017-11-22T12:18:47.596Z,94098.55
2017-11-22T12:21:15.374Z,94107.45
2017-11-22T12:23:43.093Z,94100.53
2017-11-22T12:26:10.839Z,94097.08
2017-11-22T12:28:38.612Z,94095.96
2017-11-22T12:31:06.343Z,94091.10
2017-11-22T12:33:34.289Z,94095.46
2017-11-22T12:36:02.039Z,94086.09
2017-11-22T12:38:29.782Z,94086.56
2017-11-22T12:40:57.466Z,94092.15
2017-11-22T12:43:25.156Z,94088.37
2017-11-22T12:45:53.003Z,94092.44
2017-11-22T12:48:20.760Z,94087.35
2017-11-22T12:50:49.035Z,94088.02
2017-11-22T12:53:16.738Z,94086.87
2017-11-22T12:55:45.203Z,94088.34
2017-11-22T12:58:12.867Z,94085.42
2017-11-22T13:00:40.635Z,94082.08
2017-11-22T13:03:08.398Z,94084.03
2017-11-22T13:05:36.148Z,94086.13
2017-11-22T13:08:03.947Z,94074.88
2017-11-22T13:10:34.639Z,94084.73
2017-11-22T13:13:03.662Z,94080.77
2017-11-22T13:15:31.502Z,94074.58
2017-11-22T13:17:59.282Z,94076.28
2017-11-22T13:20:27.053Z,94071.13
2017-11-22T13:22:54.713Z,94079.95
2017-11-22T13:25:22.479Z,94082.14
2017-11-22T13:27:50.248Z,94077.27
2017-11-22T13:30:18.700Z,94079.19
2017-11-22T13:32:46.586Z,94085.27
2017-11-22T13:35:14.343Z,94084.41
2017-11-22T13:37:42.127Z,94085.70
2017-11-22T13:40:09.924Z,94081.42
2017-11-22T13:42:40.557Z,94088.91
2017-11-22T13:45:09.188Z,94092.20
2017-11-22T13:47:36.952Z,94091.63
2017-11-22T13:50:04.757Z,94085.74
2017-11-22T13:52:32.571Z,94089.22
2017-11-22T13:55:01.578Z,94097.42
2017-11-22T13:57:29.347Z,94091.00
2017-11-22T13:59:57.260Z,94091.66
2017-11-22T14:02:24.999Z,94088.73
2017-11-22T14:04:52.766Z,94091.36
2017-11-22T14:07:20.629Z,94094.63
2017-11-22T14:09:48.395Z,94085.59
2017-11-22T14:12:16.233Z,94091.55
2017-11-22T14:14:44.005Z,94094.05
2017-11-22T14:17:11.845Z,94084.53
2017-11-22T14:19:39.656Z,94096.95
2017-11-22T14:22:07.458Z,94092.41
2017-11-22T14:24:35.160Z,94091.62
2017-11-22T14:27:02.962Z,94098.35
2017-11-22T14:29:30.755Z,94106.95
2017-11-22T14:31:58.496Z,94107.66
2017-11-22T14:34:26.278Z,94107.05
2017-11-22T14:36:54.242Z,94108.36
2017-11-22T14:39:22.061Z,94113.20
2017-11-22T14:41:49.873Z,94113.58
2017-11-22T14:44:17.701Z,94106.44
2017-11-22T14:46:45.518Z,94112.38
2017-11-22T14:49:13.301Z,94121.48
2017-11-22T14:51:41.287Z,94110.98
2017-11-22T14:54:09.387Z,94115.86
2017-11-22T14:56:37.193Z,94112.50
2017-11-22T14:59:05.093Z,94119.95
2017-11-22T15:01:33.087Z,94120.35
2017-11-22T15:04:00.990Z,94118.66
2017-11-22T15:06:28.803Z,94119.95
2017-11-22T15:08:56.614Z,94115.03
2017-11-22T15:11:24.561Z,94120.27
2017-11-22T15:13:52.338Z,94129.33
2017-11-22T15:16:20.238Z,94127.20
2017-11-22T15:18:48.033Z,94127.73
2017-11-22T15:21:15.847Z,94128.69
2017-11-22T15:23:43.673Z,94127.79
2017-11-22T15:26:11.630Z,94136.48
2017-11-22T15:28:39.392Z,94132.80
2017-11-22T15:31:07.218Z,94136.55
2017-11-22T15:33:35.097Z,94143.47
2017-11-22T15:36:02.970Z,94142.94
2017-11-22T15:38:30.746Z,94141.45
2017-11-22T15:40:58.502Z,94139.77
2017-11-22T15:43:26.291Z,94145.42
2017-11-22T15:45:54.042Z,94140.73
2017-11-22T15:48:21.926Z,94142.55
2017-11-22T15:50:49.648Z,94148.36
2017-11-22T15:53:17.395Z,94147.19
2017-11-22T15:55:45.121Z,94145.88
2017-11-22T15:58:12.877Z,94148.23
2017-11-22T16:00:40.704Z,94139.23
2017-11-22T16:03:08.395Z,94139.67
2017-11-22T16:05:36.124Z,94144.95
2017-11-22T16:08:03.864Z,94142.39
2017-11-22T16:10:31.530Z,94143.18
2017-11-22T16:12:59.349Z,94143.34
2017-11-22T16:15:27.168Z,94151.34
2017-11-22T16:17:54.967Z,94151.30
2017-11-22T16:20:22.738Z,94155.98
2017-11-22T16:22:50.544Z,94154.08
2017-11-22T16:25:18.393Z,94159.57
2017-11-22T16:27:46.140Z,94159.56
2017-11-22T16:30:14.079Z,94159.89
2017-11-22T16:32:42.697Z,94163.31
2017-11-22T16:35:10.514Z,94164.67
2017-11-22T16:37:38.398Z,94161.47
2017-11-22T16:40:06.178Z,94163.83
2017-11-22T16:42:33.928Z,94169.01
2017-11-22T16:45:01.704Z,94164.39
2017-11-22T16:47:29.548Z,94165.73
2017-11-22T16:49:57.281Z,94180.70
2017-11-22T16:52:25.150Z,94178.22
2017-11-22T16:54:52.937Z,94182.88
2017-11-22T16:57:20.729Z,94178.37
2017-11-22T16:59:48.473Z,94181.01
2017-11-22T17:02:16.291Z,94174.42
2017-11-22T17:04:44.020Z,94176.67
2017-11-22T17:07:11.835Z,94173.08
2017-11-22T17:09:39.711Z,94177.03
2017-11-22T17:12:07.551Z,94170.57
2017-11-22T17:14:35.340Z,94164.55
2017-11-22T17:17:03.112Z,94181.88
2017-11-22T17:19:30.953Z,94176.81
2017-11-22T17:21:58.715Z,94180.45
2017-11-22T17:24:26.590Z,94178.34
2017-11-22T17:26:54.408Z,94187.53
2017-11-22T17:29:22.231Z,94182.62
2017-11-22T17:31:50.003Z,94180.30
2017-11-22T17:34:17.762Z,94179.67
2017-11-22T17:36:45.498Z,94181.73
2017-11-22T17:39:13.328Z,94184.96
2017-11-22T17:41:41.965Z,94179.89
2017-11-22T17:44:09.813Z,94182.97
2017-11-22T17:46:37.510Z,94187.17
2017-11-22T17:49:05.282Z,94182.45
2017-11-22T17:51:33.044Z,94180.94
2017-11-22T17:54:00.800Z,94177.89
2017-11-22T17:56:28.561Z,94173.89
2017-11-22T17:58:56.337Z,94175.25
2017-11-22T18:01:24.124Z,94174.96
2017-11-22T18:03:52.076Z,94179.43
2017-11-22T18:06:19.987Z,94176.41
2017-11-22T18:08:47.902Z,94177.73
2017-11-22T18:11:15.779Z,94181.51
2017-11-22T18:13:43.558Z,94186.22
2017-11-22T18:16:11.376Z,94181.64
2017-11-22T18:18:39.164Z,94174.14
2017-11-22T18:21:06.937Z,94171.58
2017-11-22T18:23:34.891Z,94164.07
2017-11-22T18:26:02.971Z,94162.91
2017-11-22T18:28:31.720Z,94167.94
2017-11-22T18:30:59.720Z,94164.80
2017-11-22T18:33:27.556Z,94168.23
2017-11-22T18:35:55.375Z,94171.61
2017-11-22T18:38:23.308Z,94169.27
2017-11-22T18:40:51.175Z,94172.16
2017-11-22T18:43:18.927Z,94170.08
2017-11-22T18:45:46.801Z,94169.52
2017-11-22T18:48:14.685Z,94172.09
2017-11-22T18:50:43.474Z,94167.70
2017-11-22T18:53:12.801Z,94168.84
2017-11-22T18:55:43.331Z,94164.58
2017-11-22T18:58:13.093Z,94162.81
2017-11-22T19:00:41.055Z,94159.89
2017-11-22T19:03:18.388Z,94160.72
2017-11-22T19:05:48.862Z,94163.47
2017-11-22T19:08:17.513Z,94160.77
2017-11-22T19:10:45.538Z,94158.53
2017-11-22T19:13:15.269Z,94157.46
2017-11-22T19:15:43.137Z,94153.83
2017-11-22T19:18:10.863Z,94154.39
2017-11-22T19:20:38.663Z,94157.48
2017-11-22T19:23:07.528Z,94155.81
2017-11-22T19:25:35.369Z,94156.00
2017-11-22T19:28:03.552Z,94151.92
2017-11-22T19:30:31.410Z,94156.28
2017-11-22T19:32:59.234Z,94151.42
2017-11-22T19:35:27.407Z,94161.48
2017-11-22T19:37:57.237Z,94164.37
2017-11-22T19:40:25.041Z,94155.66
2017-11-22T19:42:52.876Z,94166.28
2017-11-22T19:45:20.633Z,94165.42
2017-11-22T19:47:50.042Z,94161.66
2017-11-22T19:50:18.320Z,94154.84
2017-11-22T19:52:46.220Z,94154.02
2017-11-22T19:55:13.985Z,94155.97
2017-11-22T19:57:41.877Z,94157.13
2017-11-22T20:00:09.693Z,94152.31
2017-11-22T20:02:37.453Z,94158.05
2017-11-22T20:05:06.319Z,94157.15
2017-11-22T20:07:45.820Z,94163.72
2017-11-22T20:10:13.657Z,94161.95
2017-11-22T20:12:41.799Z,94164.67
2017-11-22T20:15:09.873Z,94173.25
2017-11-22T20:17:37.740Z,94169.62
2017-11-22T20:20:06.383Z,94168.34
2017-11-22T20:22:34.291Z,94166.45
2017-11-22T20:25:02.119Z,94162.94
2017-11-22T20:27:29.924Z,94164.13
2017-11-22T20:29:57.713Z,94158.62
2017-11-22T20:32:25.407Z,94162.33
2017-11-22T20:34:53.231Z,94159.02
2017-11-22T20:37:21.029Z,94160.14
2017-11-22T20:39:48.766Z,94158.77
2017-11-22T20:42:16.522Z,94161.33
2017-11-22T20:44:44.236Z,94157.22
2017-11-22T20:47:12.046Z,94150.09
2017-11-22T20:49:39.913Z,94152.44
2017-11-22T20:52:08.783Z,94154.05
2017-11-22T20:54:36.551Z,94148.39
2017-11-22T20:57:04.392Z,94157.59
2017-11-22T20:59:32.196Z,94154.78
2017-11-22T21:02:00.519Z,94154.20
2017-11-22T21:04:28.339Z,94156.84
2017-11-22T21:06:56.037Z,94153.91
2017-11-22T21:09:23.786Z,94155.92
2017-11-22T21:11:51.603Z,94152.94
2017-11-22T21:14:19.394Z,94157.89
2017-11-22T21:16:48.222Z,94152.88
2017-11-22T21:19:15.934Z,94165.33
2017-11-22T21:21:43.626Z,94158.91
2017-11-22T21:24:11.410Z,94164.64
2017-11-22T21:26:39.286Z,94156.08
2017-11-22T21:29:07.065Z,94153.31
2017-11-22T21:31:36.042Z,94153.73
2017-11-22T21:34:03.901Z,94152.99
2017-11-22T21:36:32.189Z,94149.10
2017-11-22T21:38:59.889Z,94154.96
2017-11-22T21:41:27.604Z,94148.03
2017-11-22T21:43:55.415Z,94158.45
2017-11-22T21:46:23.170Z,94157.02
2017-11-22T21:48:50.872Z,94157.80
2017-11-22T21:51:18.626Z,94159.23
2017-11-22T21:53:46.326Z,94155.72
2017-11-22T21:56:14.162Z,94154.28
2017-11-22T21:58:42.041Z,94151.72
2017-11-22T22:01:09.762Z,94147.72
2017-11-22T22:03:37.559Z,94158.77
2017-11-22T22:06:05.272Z,94155.67
2017-11-22T22:08:33.001Z,94156.39
2017-11-22T22:11:00.764Z,94158.06
2017-11-22T22:13:28.462Z,94158.91
2017-11-22T22:15:56.260Z,94161.63
2017-11-22T22:18:24.040Z,94161.48
2017-11-22T22:20:51.739Z,94165.00
2017-11-22T22:23:19.507Z,94164.05
2017-11-22T22:25:47.253Z,94167.25
2017-11-22T22:28:15.172Z,94169.41
2017-11-22T22:30:42.975Z,94167.85
2017-11-22T22:33:10.693Z,94163.90
2017-11-22T22:35:38.464Z,94169.49
2017-11-22T22:38:06.169Z,94168.70
2017-11-22T22:40:33.874Z,94164.88
2017-11-22T22:43:01.609Z,94167.36
2017-11-22T22:45:29.380Z,94159.73
2017-11-22T22:47:57.091Z,94166.00
2017-11-22T22:50:24.825Z,94165.73
2017-11-22T22:52:52.609Z,94160.20
2017-11-22T22:55:20.320Z,94159.91
2017-11-22T22:57:48.079Z,94159.02
2017-11-22T23:00:15.851Z,94157.33
2017-11-22T23:02:43.552Z,94155.03
2017-11-22T23:05:11.400Z,94163.64
2017-11-22T23:07:39.087Z,94155.59
2017-11-22T23:10:06.782Z,94153.27
2017-11-22T23:12:34.569Z,94155.36
2017-11-22T23:15:02.259Z,94154.70
2017-11-22T23:17:29.970Z,94145.27
2017-11-22T23:19:57.714Z,94141.16
2017-11-22T23:22:25.400Z,94138.83
2017-11-22T23:24:53.074Z,94139.80
2017-11-22T23:27:20.801Z,94138.45
2017-11-22T23:29:48.490Z,94142.13
2017-11-22T23:32:16.246Z,94145.57
2017-11-22T23:34:44.052Z,94142.86
2017-11-22T23:37:11.921Z,94140.33
2017-11-22T23:39:39.674Z,94142.05
2017-11-22T23:42:07.445Z,94142.61
2017-11-22T23:44:35.135Z,94140.64
2017-11-22T23:47:02.879Z,94135.05
2017-11-22T23:49:30.627Z,94131.38
2017-11-22T23:51:58.443Z,94128.84
2017-11-22T23:54:26.152Z,94120.44
2017-11-22T23:56:53.867Z,94126.44
2017-11-22T23:59:21.657Z,94129.23
